createdAt,value
2022-11-05T00:01:55.284Z,97884.88
2022-11-05T00:04:40.483Z,97885.91
2022-11-05T00:07:34.067Z,97880.66
2022-11-05T00:10:06.317Z,97875.69
2022-11-05T00:12:51.822Z,97877.72
2022-11-05T00:15:37.134Z,97875.16
2022-11-05T00:18:04.144Z,97885.41
2022-11-05T00:20:30.869Z,97882.41
2022-11-05T00:23:23.183Z,97885.97
2022-11-05T00:25:57.030Z,97895.22
2022-11-05T00:28:24.656Z,97886.72
2022-11-05T00:30:51.837Z,97878.31
2022-11-05T00:33:18.969Z,97883.00
2022-11-05T00:35:45.713Z,97894.41
2022-11-05T00:38:12.750Z,97892.88
2022-11-05T00:40:39.513Z,97889.84
2022-11-05T00:43:25.213Z,97891.88
2022-11-05T00:45:51.910Z,97887.47
2022-11-05T00:48:37.549Z,97888.31
2022-11-05T00:51:04.273Z,97878.81
2022-11-05T00:53:31.268Z,97875.41
2022-11-05T00:55:58.084Z,97880.97
2022-11-05T00:58:25.129Z,97888.22
2022-11-05T01:00:56.300Z,97890.78
2022-11-05T01:03:24.970Z,97896.63
2022-11-05T01:05:54.140Z,97896.34
2022-11-05T01:08:22.056Z,97899.88
2022-11-05T01:10:51.363Z,97901.19
2022-11-05T01:13:20.219Z,97895.09
2022-11-05T01:15:47.363Z,97888.38
2022-11-05T01:18:14.439Z,97902.47
2022-11-05T01:20:41.257Z,97907.59
2022-11-05T01:23:13.219Z,97923.09
2022-11-05T01:25:41.943Z,97916.56
2022-11-05T01:28:09.693Z,97913.13
2022-11-05T01:30:36.797Z,97911.59
2022-11-05T01:33:04.007Z,97915.28
2022-11-05T01:35:30.855Z,97920.69
2022-11-05T01:37:57.944Z,97924.69
2022-11-05T01:40:24.894Z,97921.72
2022-11-05T01:42:51.918Z,97922.41
2022-11-05T01:45:21.100Z,97917.59
2022-11-05T01:47:51.177Z,97929.41
2022-11-05T01:50:17.857Z,97943.59
2022-11-05T01:52:44.597Z,97940.34
2022-11-05T01:55:11.565Z,97958.69
2022-11-05T01:57:38.253Z,97946.06
2022-11-05T02:00:06.053Z,97954.72
2022-11-05T02:02:32.774Z,97957.41
2022-11-05T02:05:03.896Z,97956.84
2022-11-05T02:07:30.639Z,97978.88
2022-11-05T02:10:08.721Z,97968.34
2022-11-05T02:12:36.722Z,97971.91
2022-11-05T02:15:03.997Z,97972.19
2022-11-05T02:17:42.577Z,97980.47
2022-11-05T02:20:16.405Z,97984.16
2022-11-05T02:22:52.081Z,97988.72
2022-11-05T02:25:39.597Z,98005.75
2022-11-05T02:28:43.252Z,98007.16
2022-11-05T02:31:33.645Z,98007.47
2022-11-05T02:34:42.387Z,98005.75
2022-11-05T02:37:09.401Z,98020.25
2022-11-05T02:40:15.142Z,98025.78
2022-11-05T02:42:48.234Z,98036.47
2022-11-05T02:45:33.161Z,98039.31
2022-11-05T02:48:25.674Z,98032.34
2022-11-05T02:51:00.141Z,98040.31
2022-11-05T02:53:38.745Z,98051.13
2022-11-05T02:56:06.388Z,98046.69
2022-11-05T02:58:33.670Z,98043.00
2022-11-05T03:01:02.042Z,98057.78
2022-11-05T03:03:43.663Z,98069.88
2022-11-05T03:06:29.314Z,98071.00
2022-11-05T03:09:18.370Z,98075.56
2022-11-05T03:12:09.915Z,98085.94
2022-11-05T03:14:39.973Z,98082.09
2022-11-05T03:17:29.770Z,98074.00
2022-11-05T03:20:26.113Z,98082.97
2022-11-05T03:23:22.553Z,98088.50
2022-11-05T03:25:52.230Z,98096.63
2022-11-05T03:28:20.793Z,98094.91
2022-11-05T03:30:47.771Z,98095.75
2022-11-05T03:33:20.771Z,98087.06
2022-11-05T03:35:49.934Z,98103.28
2022-11-05T03:38:28.269Z,98117.78
2022-11-05T03:40:56.125Z,98109.09
2022-11-05T03:43:24.355Z,98119.75
2022-11-05T03:45:55.017Z,98119.75
2022-11-05T03:48:21.777Z,98126.03
2022-11-05T03:50:55.348Z,98129.44
2022-11-05T03:53:24.407Z,98132.00
2022-11-05T03:55:53.847Z,98132.56
2022-11-05T03:58:21.567Z,98138.66
2022-11-05T04:00:49.138Z,98136.28
2022-11-05T04:03:15.871Z,98135.41
2022-11-05T04:05:42.874Z,98144.66
2022-11-05T04:08:28.606Z,98152.88
2022-11-05T04:11:14.225Z,98150.91
2022-11-05T04:13:40.954Z,98149.31
2022-11-05T04:16:26.503Z,98148.59
2022-11-05T04:18:53.206Z,98158.44
2022-11-05T04:21:38.745Z,98153.72
2022-11-05T04:24:08.808Z,98159.13
2022-11-05T04:26:37.501Z,98162.09
2022-11-05T04:29:22.703Z,98158.97
2022-11-05T04:31:49.836Z,98152.03
2022-11-05T04:34:18.752Z,98155.28
2022-11-05T04:36:46.343Z,98153.72
2022-11-05T04:39:13.019Z,98154.28
2022-11-05T04:41:40.105Z,98157.28
2022-11-05T04:44:06.799Z,98168.78
2022-11-05T04:46:33.885Z,98172.47
2022-11-05T04:49:00.565Z,98171.78
2022-11-05T04:51:27.566Z,98167.34
2022-11-05T04:53:54.306Z,98175.19
2022-11-05T04:56:22.585Z,98172.63
2022-11-05T04:58:49.466Z,98172.75
2022-11-05T05:01:20.977Z,98172.75
2022-11-05T05:03:48.455Z,98179.88
2022-11-05T05:06:15.877Z,98179.16
2022-11-05T05:08:42.614Z,98181.44
2022-11-05T05:11:11.714Z,98182.53
2022-11-05T05:13:38.474Z,98179.72
2022-11-05T05:16:07.241Z,98182.69
2022-11-05T05:18:34.058Z,98191.50
2022-11-05T05:21:19.617Z,98189.09
2022-11-05T05:23:49.326Z,98191.34
2022-11-05T05:26:16.530Z,98195.91
2022-11-05T05:28:43.249Z,98195.06
2022-11-05T05:31:10.326Z,98193.22
2022-11-05T05:33:37.029Z,98195.91
2022-11-05T05:36:09.989Z,98199.75
2022-11-05T05:38:37.995Z,98211.53
2022-11-05T05:41:05.144Z,98200.97
2022-11-05T05:43:32.396Z,98198.28
2022-11-05T05:46:03.846Z,98202.69
2022-11-05T05:48:30.705Z,98210.06
2022-11-05T05:51:02.135Z,98222.13
2022-11-05T05:53:29.366Z,98221.16
2022-11-05T05:55:56.572Z,98231.78
2022-11-05T05:58:24.120Z,98226.41
2022-11-05T06:00:51.128Z,98236.31
2022-11-05T06:03:18.003Z,98245.44
2022-11-05T06:05:45.182Z,98258.19
2022-11-05T06:08:11.878Z,98254.06
2022-11-05T06:10:39.006Z,98259.47
2022-11-05T06:13:05.762Z,98257.03
2022-11-05T06:15:35.817Z,98261.91
2022-11-05T06:18:03.057Z,98268.41
2022-11-05T06:20:30.053Z,98275.66
2022-11-05T06:22:57.422Z,98287.03
2022-11-05T06:25:25.029Z,98288.16
2022-11-05T06:27:51.791Z,98298.97
2022-11-05T06:30:18.900Z,98295.81
2022-11-05T06:32:45.590Z,98304.75
2022-11-05T06:35:12.614Z,98313.84
2022-11-05T06:37:39.556Z,98316.41
2022-11-05T06:40:07.136Z,98319.09
2022-11-05T06:42:33.895Z,98314.72
2022-11-05T06:45:01.018Z,98321.66
2022-11-05T06:47:27.772Z,98322.63
2022-11-05T06:49:56.212Z,98324.50
2022-11-05T06:52:22.946Z,98331.03
2022-11-05T06:54:50.187Z,98339.97
2022-11-05T06:57:16.862Z,98351.59
2022-11-05T06:59:43.879Z,98354.31
2022-11-05T07:02:10.957Z,98350.91
2022-11-05T07:04:38.116Z,98357.13
2022-11-05T07:07:04.895Z,98358.00
2022-11-05T07:09:31.959Z,98366.09
2022-11-05T07:11:58.725Z,98368.06
2022-11-05T07:14:25.707Z,98368.06
2022-11-05T07:16:52.407Z,98369.19
2022-11-05T07:19:19.415Z,98381.84
2022-11-05T07:21:46.127Z,98374.72
2022-11-05T07:24:14.431Z,98383.94
2022-11-05T07:26:41.441Z,98381.09
2022-11-05T07:29:08.447Z,98387.38
2022-11-05T07:31:35.196Z,98390.78
2022-11-05T07:34:02.391Z,98389.75
2022-11-05T07:36:29.076Z,98389.06
2022-11-05T07:39:00.096Z,98390.19
2022-11-05T07:41:27.420Z,98400.88
2022-11-05T07:43:54.459Z,98399.97
2022-11-05T07:46:21.183Z,98394.47
2022-11-05T07:48:48.199Z,98395.72
2022-11-05T07:51:14.995Z,98403.69
2022-11-05T07:53:45.326Z,98420.47
2022-11-05T07:56:13.003Z,98416.03
2022-11-05T07:58:39.991Z,98415.31
2022-11-05T08:01:07.343Z,98416.16
2022-11-05T08:03:34.704Z,98413.59
2022-11-05T08:06:01.629Z,98408.22
2022-11-05T08:08:28.918Z,98409.22
2022-11-05T08:11:03.126Z,98412.63
2022-11-05T08:13:30.135Z,98415.19
2022-11-05T08:15:57.631Z,98413.47
2022-11-05T08:18:31.305Z,98421.31
2022-11-05T08:21:04.962Z,98414.94
2022-11-05T08:23:32.340Z,98421.91
2022-11-05T08:25:59.225Z,98425.00
2022-11-05T08:28:26.482Z,98429.16
2022-11-05T08:30:54.491Z,98433.69
2022-11-05T08:33:21.599Z,98433.56
2022-11-05T08:35:48.418Z,98436.25
2022-11-05T08:38:17.755Z,98438.09
2022-11-05T08:40:45.632Z,98428.88
2022-11-05T08:43:13.898Z,98424.34
2022-11-05T08:45:41.123Z,98423.94
2022-11-05T08:48:09.902Z,98433.16
2022-11-05T08:50:37.281Z,98426.19
2022-11-05T08:53:05.144Z,98432.19
2022-11-05T08:55:32.064Z,98421.63
2022-11-05T08:58:00.149Z,98430.31
2022-11-05T09:00:27.631Z,98431.31
2022-11-05T09:02:54.683Z,98436.31
2022-11-05T09:05:21.470Z,98439.28
2022-11-05T09:07:48.520Z,98443.44
2022-11-05T09:10:15.301Z,98450.53
2022-11-05T09:12:42.370Z,98455.66
2022-11-05T09:15:10.589Z,98463.75
2022-11-05T09:17:37.647Z,98468.09
2022-11-05T09:20:05.011Z,98467.25
2022-11-05T09:22:32.247Z,98466.13
2022-11-05T09:24:58.964Z,98473.81
2022-11-05T09:27:26.569Z,98467.84
2022-11-05T09:29:53.271Z,98463.91
2022-11-05T09:32:21.026Z,98465.72
2022-11-05T09:34:48.989Z,98464.75
2022-11-05T09:37:16.231Z,98467.47
2022-11-05T09:39:42.985Z,98478.25
2022-11-05T09:42:12.060Z,98473.56
2022-11-05T09:44:42.728Z,98475.56
2022-11-05T09:47:15.779Z,98481.22
2022-11-05T09:49:44.603Z,98487.19
2022-11-05T09:52:13.904Z,98487.81
2022-11-05T09:54:40.661Z,98493.44
2022-11-05T09:57:11.014Z,98501.31
2022-11-05T09:59:45.654Z,98494.72
2022-11-05T10:02:15.748Z,98502.69
2022-11-05T10:04:43.143Z,98500.44
2022-11-05T10:07:13.659Z,98504.75
2022-11-05T10:09:45.298Z,98501.41
2022-11-05T10:12:22.351Z,98504.09
2022-11-05T10:14:52.272Z,98503.25
2022-11-05T10:17:24.274Z,98512.34
2022-11-05T10:19:55.432Z,98519.34
2022-11-05T10:22:22.437Z,98522.91
2022-11-05T10:24:49.883Z,98522.78
2022-11-05T10:27:21.282Z,98531.75
2022-11-05T10:29:48.065Z,98534.59
2022-11-05T10:32:29.257Z,98523.66
2022-11-05T10:34:57.538Z,98534.22
2022-11-05T10:37:24.585Z,98528.69
2022-11-05T10:39:51.415Z,98519.34
2022-11-05T10:42:45.448Z,98529.66
2022-11-05T10:45:18.241Z,98531.09
2022-11-05T10:47:45.205Z,98530.88
2022-11-05T10:50:14.660Z,98528.19
2022-11-05T10:53:01.466Z,98521.81
2022-11-05T10:55:29.520Z,98528.31
2022-11-05T10:58:28.952Z,98528.06
2022-11-05T11:00:56.208Z,98537.00
2022-11-05T11:03:45.141Z,98535.19
2022-11-05T11:06:28.039Z,98541.41
2022-11-05T11:08:59.887Z,98540.56
2022-11-05T11:11:37.061Z,98546.09
2022-11-05T11:14:06.568Z,98542.41
2022-11-05T11:16:38.792Z,98548.53
2022-11-05T11:19:21.281Z,98550.38
2022-11-05T11:22:14.747Z,98554.19
2022-11-05T11:24:45.427Z,98551.97
2022-11-05T11:27:16.798Z,98562.28
2022-11-05T11:29:49.158Z,98571.13
2022-11-05T11:32:19.144Z,98566.84
2022-11-05T11:34:46.830Z,98570.25
2022-11-05T11:37:34.711Z,98562.28
2022-11-05T11:40:13.042Z,98560.06
2022-11-05T11:42:40.484Z,98555.16
2022-11-05T11:45:29.016Z,98557.63
2022-11-05T11:47:56.658Z,98555.63
2022-11-05T11:50:43.252Z,98560.19
2022-11-05T11:53:35.498Z,98561.78
2022-11-05T11:56:14.632Z,98563.47
2022-11-05T11:58:52.162Z,98563.34
2022-11-05T12:01:51.639Z,98571.31
2022-11-05T12:04:43.969Z,98569.47
2022-11-05T12:07:13.866Z,98569.47
2022-11-05T12:10:03.088Z,98570.22
2022-11-05T12:12:46.222Z,98570.06
2022-11-05T12:15:39.551Z,98574.50
2022-11-05T12:18:08.279Z,98566.78
2022-11-05T12:20:57.844Z,98583.44
2022-11-05T12:23:46.294Z,98582.47
2022-11-05T12:26:33.187Z,98579.50
2022-11-05T12:29:22.290Z,98586.72
2022-11-05T12:32:27.074Z,98586.72
2022-11-05T12:35:18.271Z,98589.03
2022-11-05T12:38:16.981Z,98585.38
2022-11-05T12:40:44.242Z,98593.72
2022-11-05T12:43:33.013Z,98595.31
2022-11-05T12:46:03.475Z,98588.91
2022-11-05T12:48:53.527Z,98589.75
2022-11-05T12:51:41.798Z,98599.34
2022-11-05T12:54:23.882Z,98606.72
2022-11-05T12:56:54.659Z,98613.09
2022-11-05T12:59:30.764Z,98607.09
2022-11-05T13:02:13.948Z,98611.25
2022-11-05T13:04:45.704Z,98625.50
2022-11-05T13:07:15.178Z,98622.78
2022-11-05T13:09:52.380Z,98632.59
2022-11-05T13:12:21.796Z,98640.44
2022-11-05T13:14:53.245Z,98632.47
2022-11-05T13:17:25.142Z,98633.31
2022-11-05T13:20:03.693Z,98636.88
2022-11-05T13:22:37.235Z,98639.72
2022-11-05T13:25:11.037Z,98643.97
2022-11-05T13:27:51.860Z,98633.19
2022-11-05T13:30:23.656Z,98635.88
2022-11-05T13:32:55.737Z,98642.16
2022-11-05T13:35:30.504Z,98638.59
2022-11-05T13:38:18.363Z,98644.09
2022-11-05T13:41:04.113Z,98644.88
2022-11-05T13:43:43.432Z,98644.88
2022-11-05T13:46:29.357Z,98647.44
2022-11-05T13:49:25.521Z,98650.97
2022-11-05T13:51:57.152Z,98659.94
2022-11-05T13:54:39.105Z,98657.94
2022-11-05T13:57:24.484Z,98665.34
2022-11-05T13:59:57.293Z,98673.44
2022-11-05T14:03:00.879Z,98678.84
2022-11-05T14:05:37.080Z,98674.44
2022-11-05T14:08:17.634Z,98676.28
2022-11-05T14:11:05.093Z,98685.03
2022-11-05T14:13:32.097Z,98687.72
2022-11-05T14:16:10.425Z,98696.31
2022-11-05T14:18:44.495Z,98708.09
2022-11-05T14:21:26.509Z,98702.44
2022-11-05T14:23:57.712Z,98712.38
2022-11-05T14:26:24.554Z,98712.38
2022-11-05T14:29:03.687Z,98719.72
2022-11-05T14:32:07.109Z,98725.13
2022-11-05T14:34:55.139Z,98726.88
2022-11-05T14:37:24.304Z,98732.38
2022-11-05T14:39:51.437Z,98729.94
2022-11-05T14:42:30.600Z,98732.50
2022-11-05T14:45:03.597Z,98722.59
2022-11-05T14:47:33.127Z,98735.94
2022-11-05T14:50:41.781Z,98742.47
2022-11-05T14:53:44.111Z,98751.16
2022-11-05T14:56:13.649Z,98756.09
2022-11-05T14:58:44.257Z,98749.72
2022-11-05T15:01:13.906Z,98758.69
2022-11-05T15:03:45.860Z,98753.78
2022-11-05T15:06:20.525Z,98750.34
2022-11-05T15:08:50.520Z,98753.53
2022-11-05T15:11:18.882Z,98759.53
2022-11-05T15:14:00.831Z,98771.44
2022-11-05T15:16:34.119Z,98772.91
2022-11-05T15:19:00.802Z,98774.88
2022-11-05T15:21:27.895Z,98776.72
2022-11-05T15:23:56.495Z,98778.44
2022-11-05T15:26:23.490Z,98782.84
2022-11-05T15:28:51.765Z,98773.69
2022-11-05T15:31:45.448Z,98775.84
2022-11-05T15:34:21.705Z,98775.13
2022-11-05T15:36:51.225Z,98784.34
2022-11-05T15:39:29.459Z,98785.44
2022-11-05T15:41:57.847Z,98785.34
2022-11-05T15:44:26.354Z,98796.84
2022-11-05T15:47:07.116Z,98807.78
2022-11-05T15:49:34.355Z,98802.97
2022-11-05T15:52:01.062Z,98802.50
2022-11-05T15:54:30.537Z,98803.38
2022-11-05T15:56:58.492Z,98803.25
2022-11-05T15:59:26.504Z,98808.03
2022-11-05T16:01:54.229Z,98814.31
2022-11-05T16:04:23.050Z,98811.00
2022-11-05T16:06:51.551Z,98811.72
2022-11-05T16:09:31.964Z,98814.78
2022-11-05T16:12:20.569Z,98815.28
2022-11-05T16:14:57.879Z,98813.94
2022-11-05T16:17:30.342Z,98822.78
2022-11-05T16:19:57.519Z,98825.72
2022-11-05T16:22:24.483Z,98825.59
2022-11-05T16:24:51.735Z,98838.63
2022-11-05T16:27:20.335Z,98837.53
2022-11-05T16:29:48.565Z,98842.91
2022-11-05T16:32:17.423Z,98844.50
2022-11-05T16:34:52.130Z,98848.44
2022-11-05T16:37:21.740Z,98854.44
2022-11-05T16:39:48.723Z,98853.72
2022-11-05T16:42:24.618Z,98852.84
2022-11-05T16:44:52.707Z,98850.88
2022-11-05T16:47:19.920Z,98853.72
2022-11-05T16:49:50.121Z,98854.81
2022-11-05T16:52:16.881Z,98859.84
2022-11-05T16:54:43.925Z,98863.41
2022-11-05T16:57:30.585Z,98866.47
2022-11-05T16:59:59.091Z,98872.75
2022-11-05T17:02:26.209Z,98876.53
2022-11-05T17:04:53.438Z,98870.78
2022-11-05T17:07:20.350Z,98866.69
2022-11-05T17:09:47.373Z,98863.03
2022-11-05T17:12:14.383Z,98867.47
2022-11-05T17:14:41.520Z,98862.91
2022-11-05T17:17:08.227Z,98860.56
2022-11-05T17:19:35.208Z,98858.25
2022-11-05T17:22:02.067Z,98861.31
2022-11-05T17:24:29.084Z,98866.84
2022-11-05T17:26:55.852Z,98875.19
2022-11-05T17:29:22.967Z,98878.63
2022-11-05T17:31:49.831Z,98882.91
2022-11-05T17:34:17.675Z,98880.47
2022-11-05T17:36:44.435Z,98888.47
2022-11-05T17:39:11.571Z,98890.41
2022-11-05T17:41:38.467Z,98886.13
2022-11-05T17:44:05.477Z,98883.91
2022-11-05T17:46:32.257Z,98885.00
2022-11-05T17:48:59.293Z,98888.56
2022-11-05T17:51:25.968Z,98891.41
2022-11-05T17:53:53.033Z,98889.91
2022-11-05T17:56:30.590Z,98886.44
2022-11-05T17:59:01.461Z,98886.44
2022-11-05T18:01:30.562Z,98888.81
2022-11-05T18:03:57.775Z,98894.53
2022-11-05T18:06:24.531Z,98892.72
2022-11-05T18:08:51.519Z,98905.56
2022-11-05T18:11:18.239Z,98906.31
2022-11-05T18:13:45.314Z,98904.59
2022-11-05T18:16:12.152Z,98909.28
2022-11-05T18:18:39.203Z,98903.09
2022-11-05T18:21:06.090Z,98902.88
2022-11-05T18:23:33.217Z,98911.31
2022-11-05T18:25:59.945Z,98911.81
2022-11-05T18:28:29.945Z,98917.59
2022-11-05T18:30:56.729Z,98911.72
2022-11-05T18:33:24.011Z,98919.53
2022-11-05T18:35:50.703Z,98921.28
2022-11-05T18:38:17.719Z,98923.34
2022-11-05T18:40:44.466Z,98929.84
2022-11-05T18:43:11.986Z,98935.88
2022-11-05T18:45:38.873Z,98931.69
2022-11-05T18:48:06.188Z,98942.13
2022-11-05T18:50:32.901Z,98938.59
2022-11-05T18:52:59.938Z,98941.63
2022-11-05T18:55:26.677Z,98945.06
2022-11-05T18:57:53.753Z,98945.56
2022-11-05T19:00:20.657Z,98951.31
2022-11-05T19:02:47.764Z,98956.97
2022-11-05T19:05:28.481Z,98960.63
2022-11-05T19:07:56.734Z,98962.38
2022-11-05T19:10:23.516Z,98967.78
2022-11-05T19:12:50.549Z,98974.13
2022-11-05T19:15:17.325Z,98980.25
2022-11-05T19:17:44.422Z,98977.81
2022-11-05T19:20:11.460Z,98980.72
2022-11-05T19:22:38.604Z,98987.75
2022-11-05T19:25:05.982Z,98994.09
2022-11-05T19:27:35.041Z,98977.28
2022-11-05T19:30:02.236Z,98995.34
2022-11-05T19:32:29.317Z,98993.59
2022-11-05T19:34:56.006Z,98995.44
2022-11-05T19:37:23.017Z,99001.06
2022-11-05T19:39:49.746Z,99007.09
2022-11-05T19:42:16.769Z,99016.19
2022-11-05T19:44:44.098Z,99014.69
2022-11-05T19:47:11.152Z,99015.69
2022-11-05T19:49:37.828Z,99023.88
2022-11-05T19:52:04.928Z,99021.81
2022-11-05T19:54:31.625Z,99014.56
2022-11-05T19:56:58.804Z,99022.66
2022-11-05T19:59:25.734Z,99030.03
2022-11-05T20:01:52.916Z,99024.75
2022-11-05T20:04:19.812Z,99021.81
2022-11-05T20:06:49.485Z,99028.28
2022-11-05T20:09:23.558Z,99035.75
2022-11-05T20:11:51.441Z,99047.28
2022-11-05T20:14:18.184Z,99049.03
2022-11-05T20:16:45.820Z,99041.03
2022-11-05T20:19:19.475Z,99049.25
2022-11-05T20:21:46.628Z,99048.72
2022-11-05T20:24:18.739Z,99053.78
2022-11-05T20:26:49.256Z,99062.00
2022-11-05T20:29:16.267Z,99068.59
2022-11-05T20:31:43.250Z,99066.66
2022-11-05T20:34:10.566Z,99068.34
2022-11-05T20:36:38.314Z,99070.22
2022-11-05T20:39:05.777Z,99079.53
2022-11-05T20:41:33.245Z,99070.44
2022-11-05T20:44:00.004Z,99074.97
2022-11-05T20:46:27.162Z,99077.16
2022-11-05T20:48:54.140Z,99075.31
2022-11-05T20:51:22.094Z,99078.13
2022-11-05T20:53:49.114Z,99085.03
2022-11-05T20:56:20.293Z,99072.84
2022-11-05T20:58:47.439Z,99081.66
2022-11-05T21:01:16.239Z,99069.19
2022-11-05T21:03:46.576Z,99066.47
2022-11-05T21:06:13.778Z,99079.13
2022-11-05T21:08:40.524Z,99073.81
2022-11-05T21:11:07.560Z,99075.63
2022-11-05T21:13:34.849Z,99078.34
2022-11-05T21:16:02.457Z,99071.97
2022-11-05T21:18:31.054Z,99073.06
2022-11-05T21:21:00.518Z,99075.91
2022-11-05T21:23:28.036Z,99071.69
2022-11-05T21:25:55.289Z,99073.94
2022-11-05T21:28:22.048Z,99076.63
2022-11-05T21:30:49.228Z,99074.16
2022-11-05T21:33:16.905Z,99074.59
2022-11-05T21:35:46.493Z,99074.09
2022-11-05T21:38:14.581Z,99080.88
2022-11-05T21:40:41.916Z,99076.56
2022-11-05T21:43:08.716Z,99079.69
2022-11-05T21:45:38.842Z,99085.88
2022-11-05T21:48:06.444Z,99085.63
2022-11-05T21:50:51.955Z,99083.28
2022-11-05T21:53:37.301Z,99073.69
2022-11-05T21:56:26.587Z,99078.00
2022-11-05T21:59:12.084Z,99078.84
2022-11-05T22:01:39.275Z,99078.31
2022-11-05T22:04:06.129Z,99078.31
2022-11-05T22:06:33.635Z,99074.66
2022-11-05T22:09:00.319Z,99085.56
2022-11-05T22:11:27.417Z,99087.47
2022-11-05T22:13:54.115Z,99083.81
2022-11-05T22:16:21.060Z,99086.31
2022-11-05T22:18:47.796Z,99081.03
2022-11-05T22:21:18.429Z,99077.22
2022-11-05T22:23:45.181Z,99081.75
2022-11-05T22:26:12.201Z,99077.91
2022-11-05T22:28:38.883Z,99080.59
2022-11-05T22:31:14.618Z,99082.09
2022-11-05T22:33:41.613Z,99082.44
2022-11-05T22:36:09.213Z,99081.47
2022-11-05T22:38:35.950Z,99082.34
2022-11-05T22:41:14.525Z,99086.31
2022-11-05T22:43:41.294Z,99083.31
2022-11-05T22:46:12.614Z,99087.31
2022-11-05T22:48:39.603Z,99081.94
2022-11-05T22:51:09.311Z,99082.25
2022-11-05T22:53:36.130Z,99089.22
2022-11-05T22:56:07.280Z,99092.81
2022-11-05T22:58:34.148Z,99094.72
2022-11-05T23:01:01.295Z,99092.41
2022-11-05T23:03:28.818Z,99094.31
2022-11-05T23:06:31.787Z,99104.34
2022-11-05T23:09:17.537Z,99099.84
2022-11-05T23:11:47.058Z,99102.41
2022-11-05T23:14:13.768Z,99101.66
2022-11-05T23:16:59.602Z,99108.03
2022-11-05T23:19:44.892Z,99103.72
2022-11-05T23:22:44.134Z,99103.06
2022-11-05T23:25:19.373Z,99112.00
2022-11-05T23:27:47.687Z,99109.31
2022-11-05T23:30:17.911Z,99109.44
2022-11-05T23:32:44.997Z,99102.53
2022-11-05T23:35:11.854Z,99102.53
2022-11-05T23:37:57.235Z,99103.41
2022-11-05T23:40:28.578Z,99109.00
2022-11-05T23:43:14.169Z,99104.50
2022-11-05T23:46:01.919Z,99108.47
2022-11-05T23:48:35.143Z,99115.59
2022-11-05T23:51:04.126Z,99115.59
2022-11-05T23:53:32.580Z,99117.28
2022-11-05T23:56:10.006Z,99122.03
2022-11-05T23:58:37.341Z,99119.34
